Centennial Airport
KAPA : now visible

Airfield :











YOU CAN JOIN US ON...

 
LOGIN :

Register | Disclaimer

   EN    FR    IT 

 









Legend :    VFR   Marginal VFR   IFR   Intensive IFR   Very Intensive IFR
Visi :
Ceiling :
>= 8 km
>= 3000ft
5 to 8 km
1000 to 3000 ft
1500m to 5 km
500 to 1000 ft
800 to 1500m
200 to 500 ft
< 800m
< 200 ft
Symbols :   Thunderstorms  Fog  Heavy snow  Heavy precipitations  Wind > 20 kt






- Airport Elevation : 5885 ft


KAPA - Centennial

CURRENT METAR :
  • 231605Z 30009KT 2SM -SN BR SCT004 OVC010 00/M01 A3003 RMK AO2 SFC VIS 2 1/2 P0000 T00001011

EXPIRED METARs :
  • 231553Z 31010KT 1SM -SN BR SCT004 OVC008 00/M01 A3003 RMK AO2 SLP178 P0006 T00001011
  • 231500Z 31010KT 1/4SM +SN FG FEW003 OVC009 00/M02 A3002 RMK AO2 TWR VIS 1 P0001 T00001017
  • 231453Z 32009KT 1/4SM +SN FG VV012 00/M02 A3002 RMK AO2 TWR VIS 1 SLP177 P0001 60001 T00001017 50014
  • 231428Z 30011KT 1 1/4SM -SN BR OVC017 00/M02 A3001 RMK AO2 TWR VIS 2 1/2 P0000 T00001017
  • 231416Z 34010KT 3/4SM -SN VV020 01/M02 A3000 RMK AO2 TWR VIS 2 1/2 P0000 T00111022
  • 231405Z 32012KT 1 1/2SM -SN OVC029 01/M03 A3000 RMK AO2 TWR VIS 2 1/2 P0000 T00111033

TAF KAPA
Valid from the 23 at 16:00 until the 24 at 12:00 UTC


231622Z 2316/2412 32010KT 1 1/2SM -SN BR SCT004 OVC008
TEMPO 2316/2318 1/2SM SN FG VV004
FM232300 32008KT 5SM -SN BR SCT015 OVC025
FM240200 VRB05KT P6SM SCT025 OVC070
FM240500 21008KT P6SM FEW100 SCT250



MET'MAP, your aeronautical weather chart ! - Copyright ORBIFLY December 2007 - Disclaimer

ORBIFLY MET'MAP TEAM :

Programming & Development : Alexandra Zaïnal
Concept & original design : Baudouin d'Aumeries
Assistance for programming : Marc-Olivier Méhu
Technical & hardware support : Manuel Goepfert

Contact : metmap@orbifly.com




SOURCES & CREDITS :

   NOAA       Earth
Advisory